Time;durP1;ratioP1;P1;durP2;ratioP2;P2;SDS_P1;SDS_P2;PMS_P1;PMS_P2;Temp;Humidity;BMP_temperature;BMP_pressure;BME280_temperature;BME280_humidity;BME280_pressure;Samples;Min_cycle;Max_cycle;Signal;HPM_P1;HPM_P2
2022/03/21 00:00:32;;;;;;;;;66.67;54.00;;;;;9.89;53.73;102040.06;5077450;27;45670;-83
2022/03/21 00:02:58;;;;;;;;;63.00;49.50;;;;;9.87;54.00;102047.03;5076946;27;45457;-82
2022/03/21 00:05:23;;;;;;;;;65.33;51.67;;;;;9.84;54.46;102032.88;5078095;28;45451;-81
2022/03/21 00:07:49;;;;;;;;;62.50;51.00;;;;;9.81;54.12;102032.78;5078717;27;45511;-83
2022/03/21 00:10:15;;;;;;;;;61.00;49.00;;;;;9.84;53.93;102040.75;5078687;27;45445;-83
2022/03/21 00:12:41;;;;;;;;;62.00;50.67;;;;;9.69;54.24;102021.03;5078041;27;45456;-82
2022/03/21 00:15:11;;;;;;;;;66.00;51.67;;;;;9.77;54.59;102039.69;5078683;27;45436;-82
2022/03/21 00:17:40;;;;;;;;;65.33;53.33;;;;;9.80;54.38;102033.63;5075238;27;45336;-80
2022/03/21 00:20:10;;;;;;;;;66.00;52.67;;;;;9.75;54.42;102044.00;5086802;27;45640;-81
2022/03/21 00:22:36;;;;;;;;;61.33;50.67;;;;;9.67;54.85;102025.31;5082385;27;45266;-81
2022/03/21 00:25:02;;;;;;;;;66.67;53.67;;;;;9.75;55.00;102044.00;5077858;27;45305;-82
2022/03/21 00:27:27;;;;;;;;;69.00;53.00;;;;;9.70;54.90;102041.22;5076999;27;45580;-83
2022/03/21 00:29:52;;;;;;;;;61.33;50.00;;;;;9.66;54.66;102044.59;5078659;27;45266;-83
2022/03/21 00:32:18;;;;;;;;;66.00;53.33;;;;;9.56;54.66;102025.84;5078033;27;45433;-82
2022/03/21 00:34:43;;;;;;;;;67.67;54.00;;;;;9.65;55.18;102041.91;5078241;28;45448;-83
2022/03/21 00:37:09;;;;;;;;;64.00;52.00;;;;;9.64;55.36;102045.41;5076813;27;45374;-80
2022/03/21 00:39:36;;;;;;;;;62.00;51.67;;;;;9.24;55.36;101981.00;5077451;27;46132;-80
2022/03/21 00:42:03;;;;;;;;;74.67;55.00;;;;;9.50;55.17;102021.28;5077945;27;45443;-83
2022/03/21 00:44:28;;;;;;;;;68.67;54.67;;;;;9.61;55.21;102046.19;5078354;27;45350;-83
2022/03/21 00:46:54;;;;;;;;;71.33;56.00;;;;;9.55;55.24;102031.94;5075441;28;45414;-82
2022/03/21 00:49:19;;;;;;;;;68.67;54.00;;;;;9.55;55.27;102037.22;5077629;27;45362;-80
2022/03/21 00:51:45;;;;;;;;;65.00;52.33;;;;;9.57;55.32;102038.16;5078085;27;45253;-83
2022/03/21 00:54:10;;;;;;;;;73.67;52.33;;;;;9.48;55.55;102033.47;5079085;28;45851;-83
2022/03/21 00:56:36;;;;;;;;;63.33;48.33;;;;;9.50;55.37;102041.44;5086661;27;45231;-80
2022/03/21 00:59:01;;;;;;;;;67.33;54.00;;;;;9.48;55.42;102040.47;5080579;27;45606;-79
2022/03/21 01:01:26;;;;;;;;;67.33;53.00;;;;;9.45;55.55;102037.75;5078331;27;45419;-81
2022/03/21 01:03:52;;;;;;;;;67.00;53.33;;;;;9.33;55.38;102014.59;5077377;27;45399;-81
2022/03/21 01:06:17;;;;;;;;;69.00;55.67;;;;;9.45;55.98;102041.28;5077199;27;45669;-81
2022/03/21 01:08:43;;;;;;;;;65.33;52.67;;;;;9.36;56.16;102027.81;5075390;28;47554;-81
2022/03/21 01:11:08;;;;;;;;;73.67;55.67;;;;;9.28;55.61;102013.53;5077474;28;45622;-79
2022/03/21 01:13:39;;;;;;;;;67.00;55.67;;;;;9.38;55.76;102037.53;5077354;28;45381;-81
2022/03/21 01:16:05;;;;;;;;;65.67;52.67;;;;;9.34;56.22;102046.19;5077010;27;45361;-80
2022/03/21 01:18:30;;;;;;;;;73.00;55.00;;;;;9.31;56.83;102034.69;5076059;27;45204;-81
2022/03/21 01:20:55;;;;;;;;;68.67;55.00;;;;;9.31;56.99;102037.31;5077103;27;45215;-82
2022/03/21 01:23:21;;;;;;;;;69.00;54.67;;;;;9.32;56.17;102039.09;5076199;27;45287;-82
2022/03/21 01:25:46;;;;;;;;;67.33;56.00;;;;;9.32;56.19;102044.34;5077718;27;45317;-83
2022/03/21 01:28:12;;;;;;;;;72.33;54.33;;;;;9.37;56.73;102037.50;5076168;27;46276;-80
2022/03/21 01:30:37;;;;;;;;;69.00;55.00;;;;;9.34;57.04;102032.16;5081580;28;45293;-81
2022/03/21 01:33:02;;;;;;;;;68.67;51.00;;;;;9.37;56.48;102040.13;5085061;27;45791;-84
2022/03/21 01:35:28;;;;;;;;;68.00;53.00;;;;;9.34;56.58;102029.53;5077650;27;45598;-82
2022/03/21 01:37:54;;;;;;;;;70.33;56.67;;;;;9.40;56.26;102028.00;5076051;28;45980;-83
2022/03/21 01:40:19;;;;;;;;;64.33;52.33;;;;;9.43;56.63;102032.44;5077269;27;45329;-83
2022/03/21 01:42:47;;;;;;;;;64.67;53.33;;;;;9.53;56.09;102042.44;5076231;27;45426;-83
2022/03/21 01:45:12;;;;;;;;;67.67;57.00;;;;;9.61;56.48;102037.41;5076836;27;45416;-83
2022/03/21 01:47:38;;;;;;;;;61.67;50.67;;;;;9.55;56.28;102019.69;5074298;27;45426;-83
2022/03/21 01:50:05;;;;;;;;;66.00;50.67;;;;;9.60;56.51;102025.13;5076765;27;45289;-83
2022/03/21 01:52:30;;;;;;;;;61.33;50.67;;;;;9.63;56.45;102033.97;5076656;27;45199;-83
2022/03/21 01:57:43;;;;;;;;;68.33;51.00;;;;;9.71;56.35;102045.66;5075658;28;45589;-82
2022/03/21 02:00:08;;;;;;;;;72.67;52.67;;;;;9.71;56.17;102032.50;5077194;27;45433;-83
2022/03/21 02:02:34;;;;;;;;;70.67;53.67;;;;;9.75;56.26;102038.72;5075338;27;45421;-83
2022/03/21 02:04:59;;;;;;;;;60.67;48.33;;;;;9.73;56.62;102035.16;5077385;27;45451;-82
2022/03/21 02:07:25;;;;;;;;;64.00;51.00;;;;;9.71;56.38;102037.75;5088261;27;45467;-77
2022/03/21 02:09:50;;;;;;;;;67.33;53.00;;;;;9.58;56.44;102014.50;5077397;27;45461;-82
2022/03/21 02:12:16;;;;;;;;;67.00;53.00;;;;;9.47;56.68;101999.25;5076711;27;45337;-82
2022/03/21 02:14:42;;;;;;;;;68.33;52.67;;;;;9.73;57.42;102043.06;5077557;27;45362;-82
2022/03/21 02:17:10;;;;;;;;;59.33;50.33;;;;;9.68;56.52;102039.41;5076550;27;45477;-83
2022/03/21 02:19:38;;;;;;;;;66.00;52.67;;;;;9.37;57.08;101984.91;5075493;27;45190;-82
2022/03/21 02:22:12;;;;;;;;;66.67;53.67;;;;;9.57;57.18;102007.47;5076067;27;45762;-81
2022/03/21 02:24:44;;;;;;;;;64.33;53.67;;;;;9.76;57.03;102039.63;5076951;27;45385;-82
2022/03/21 02:27:12;;;;;;;;;59.67;49.33;;;;;9.79;57.16;102030.09;5076648;27;45693;-80
2022/03/21 02:29:38;;;;;;;;;63.67;52.33;;;;;9.70;56.97;102008.75;5075728;28;45207;-80
2022/03/21 02:32:06;;;;;;;;;61.33;52.00;;;;;9.80;57.38;102026.63;5074933;27;45377;-79
2022/03/21 02:34:36;;;;;;;;;62.33;51.33;;;;;9.80;56.82;102009.94;5075889;27;45519;-83
2022/03/21 02:37:02;;;;;;;;;67.33;53.00;;;;;9.85;57.32;102018.84;5074663;28;46415;-81
2022/03/21 02:39:29;;;;;;;;;66.67;53.33;;;;;9.84;57.34;102017.97;5075908;27;45685;-82
2022/03/21 02:41:54;;;;;;;;;62.67;50.67;;;;;9.82;57.31;102024.03;5084328;27;45357;-82
2022/03/21 02:44:20;;;;;;;;;65.67;52.00;;;;;9.74;57.77;102015.91;5085719;28;45460;-81
2022/03/21 02:46:46;;;;;;;;;63.33;48.00;;;;;9.66;58.00;102005.13;5079511;27;45590;-83
2022/03/21 02:49:14;;;;;;;;;68.33;53.00;;;;;9.71;57.91;102018.44;5079028;27;45392;-82
2022/03/21 02:51:41;;;;;;;;;64.67;50.00;;;;;9.73;58.06;102021.13;5079368;27;45222;-82
2022/03/21 02:54:07;;;;;;;;;68.00;54.00;;;;;9.74;57.67;102021.16;5080281;27;45217;-83
2022/03/21 02:56:32;;;;;;;;;69.33;51.67;;;;;9.75;58.00;102016.78;5079749;27;46162;-82
2022/03/21 02:58:58;;;;;;;;;61.33;51.00;;;;;9.75;57.77;102024.69;5088091;27;45444;-82
2022/03/21 03:01:23;;;;;;;;;68.67;51.00;;;;;9.61;57.92;101995.31;5097348;27;45447;-82
2022/03/21 03:03:48;;;;;;;;;63.00;52.00;;;;;9.76;57.63;102015.94;5100348;27;44994;-79
2022/03/21 03:06:14;;;;;;;;;63.33;47.33;;;;;9.77;57.91;102015.09;5100171;27;45312;-81
2022/03/21 03:08:41;;;;;;;;;69.67;55.33;;;;;9.70;57.75;102000.88;5098964;27;45423;-80
2022/03/21 03:11:07;;;;;;;;;63.33;49.67;;;;;9.82;57.76;102016.13;5093484;27;45407;-83
2022/03/21 03:13:32;;;;;;;;;72.67;56.33;;;;;9.83;57.26;102016.19;5081598;27;45315;-81
2022/03/21 03:15:58;;;;;;;;;68.67;54.00;;;;;9.80;58.11;102010.84;5080148;27;45396;-81
2022/03/21 03:18:24;;;;;;;;;64.00;50.33;;;;;9.85;57.73;102014.47;5090018;27;45179;-83
2022/03/21 03:20:52;;;;;;;;;63.67;47.67;;;;;9.81;58.39;102006.47;5084290;27;45413;-82
2022/03/21 03:23:19;;;;;;;;;67.00;53.00;;;;;9.90;58.30;102022.53;5078155;27;45440;-84
2022/03/21 03:25:46;;;;;;;;;69.33;53.33;;;;;9.71;57.67;101989.50;5079890;27;46311;-84
2022/03/21 03:28:12;;;;;;;;;63.67;52.67;;;;;9.67;58.43;101988.50;5078519;27;45338;-83
2022/03/21 03:30:38;;;;;;;;;67.67;49.67;;;;;9.54;58.67;101967.03;5079333;27;45270;-84
2022/03/21 03:33:04;;;;;;;;;65.67;54.00;;;;;9.84;58.07;102020.59;5078782;27;45461;-83
2022/03/21 03:35:30;;;;;;;;;69.33;55.00;;;;;9.58;57.96;101972.41;5077569;27;46039;-82
2022/03/21 03:37:55;;;;;;;;;63.00;52.67;;;;;9.92;57.92;102023.47;5080254;27;45239;-82
2022/03/21 03:40:21;;;;;;;;;61.00;48.67;;;;;9.92;58.31;102024.38;5079916;27;45219;-84
2022/03/21 03:42:47;;;;;;;;;70.00;54.33;;;;;9.94;57.56;102029.66;5079797;27;45199;-85
2022/03/21 03:45:13;;;;;;;;;69.67;53.33;;;;;9.97;58.25;102027.16;5079434;27;46214;-83
2022/03/21 03:47:39;;;;;;;;;65.00;51.33;;;;;9.97;58.49;102027.16;5078731;27;45388;-83
2022/03/21 03:50:05;;;;;;;;;57.00;46.33;;;;;9.98;58.06;102031.56;5079137;27;45451;-85
2022/03/21 03:52:31;;;;;;;;;69.00;54.33;;;;;9.99;58.75;102033.34;5079462;27;45456;-82
2022/03/21 03:54:56;;;;;;;;;65.67;51.33;;;;;9.97;58.37;102024.53;5088589;27;46047;-81
2022/03/21 03:57:21;;;;;;;;;65.33;52.00;;;;;10.02;58.41;102033.44;5078772;27;45380;-82
2022/03/21 03:59:47;;;;;;;;;68.00;52.33;;;;;10.07;58.13;102030.94;5075942;27;45417;-81
2022/03/21 04:02:12;;;;;;;;;70.33;53.33;;;;;10.02;58.74;102019.38;5077296;28;45539;-79
2022/03/21 04:04:38;;;;;;;;;69.00;55.67;;;;;10.06;58.25;102024.78;5078378;28;45271;-78
2022/03/21 04:07:03;;;;;;;;;63.67;48.00;;;;;10.03;58.44;102014.16;5078173;28;45412;-80
2022/03/21 04:09:29;;;;;;;;;67.00;51.67;;;;;10.15;58.28;102030.34;5077656;27;45268;-81
2022/03/21 04:11:54;;;;;;;;;67.67;53.33;;;;;10.18;58.28;102035.69;5077664;27;45754;-81
2022/03/21 04:14:19;;;;;;;;;58.67;50.00;;;;;10.25;58.66;102047.34;5078317;27;45473;-80
2022/03/21 04:16:45;;;;;;;;;66.33;54.33;;;;;9.98;58.82;102000.88;5077006;27;45318;-84
2022/03/21 04:19:12;;;;;;;;;64.33;52.67;;;;;10.31;58.47;102050.13;5076798;27;45394;-80
2022/03/21 04:21:38;;;;;;;;;61.50;51.50;;;;;10.34;58.44;102049.34;5077873;27;47035;-81
2022/03/21 04:24:04;;;;;;;;;57.50;45.75;;;;;10.36;58.68;102053.81;5077772;27;46106;-80
2022/03/21 04:26:29;;;;;;;;;64.33;51.33;;;;;10.28;58.56;102031.63;5078500;28;45390;-78
2022/03/21 04:28:55;;;;;;;;;69.25;54.00;;;;;10.37;58.59;102050.31;5085153;27;45414;-83
2022/03/21 04:31:21;;;;;;;;;63.67;52.33;;;;;10.35;58.09;102054.66;5083297;28;45412;-80
2022/03/21 04:33:47;;;;;;;;;67.75;53.75;;;;;10.16;58.85;102020.69;5076560;27;45400;-79
2022/03/21 04:36:13;;;;;;;;;62.67;51.00;;;;;10.33;59.08;102056.34;5077407;27;45341;-81
2022/03/21 04:38:39;;;;;;;;;59.00;47.00;;;;;10.33;58.95;102061.63;5076778;27;45415;-81
2022/03/21 04:41:06;;;;;;;;;67.67;51.67;;;;;10.31;59.63;102075.56;5067405;28;45386;-84
2022/03/21 04:43:32;;;;;;;;;65.33;49.33;;;;;10.33;58.98;102068.59;5076466;27;45566;-81
2022/03/21 04:45:58;;;;;;;;;67.33;52.67;;;;;10.33;59.41;102066.91;5077359;27;45370;-79
2022/03/21 04:48:24;;;;;;;;;60.00;49.67;;;;;10.20;59.48;102051.53;5077271;27;45241;-79
2022/03/21 04:50:49;;;;;;;;;63.00;50.33;;;;;10.23;59.10;102052.53;5076216;27;45401;-80
2022/03/21 04:53:16;;;;;;;;;66.00;52.67;;;;;10.12;58.41;102042.50;5077079;27;46142;-81
2022/03/21 04:55:42;;;;;;;;;68.00;52.67;;;;;10.21;58.00;102059.47;5076923;27;45795;-80
2022/03/21 04:58:08;;;;;;;;;60.67;49.67;;;;;10.34;57.92;102089.75;5076911;27;45442;-80
2022/03/21 05:00:34;;;;;;;;;65.00;51.00;;;;;10.36;58.46;102084.53;5076334;28;45367;-79
2022/03/21 05:03:01;;;;;;;;;63.00;51.33;;;;;10.21;59.60;102061.22;5076270;27;45255;-80
2022/03/21 05:05:28;;;;;;;;;67.33;54.00;;;;;10.33;59.67;102077.44;5083766;27;45175;-80
2022/03/21 05:07:54;;;;;;;;;53.67;41.33;;;;;10.32;59.12;102080.88;5077847;28;45648;-79
2022/03/21 05:10:24;;;;;;;;;64.00;52.00;;;;;10.32;59.41;102074.72;5076094;28;45297;-78
2022/03/21 05:12:50;;;;;;;;;64.25;52.25;;;;;10.42;59.13;102082.97;5075972;27;45568;-81
2022/03/21 05:15:16;;;;;;;;;66.00;51.00;;;;;10.45;58.64;102084.81;5076073;27;45589;-80
2022/03/21 05:17:43;;;;;;;;;60.25;47.25;;;;;10.46;59.50;102084.84;5075843;27;45456;-80
2022/03/21 05:20:18;;;;;;;;;58.00;47.00;;;;;10.47;59.40;102088.38;5075127;27;45180;-82
2022/03/21 05:30:57;;;;;;;;;60.25;48.50;;;;;10.43;59.36;102082.13;5076290;27;45966;-81
2022/03/21 05:31:07;;;;;;;;;68.33;53.00;;;;;10.47;60.00;102089.25;5077614;27;45388;-80
2022/03/21 05:36:32;;;;;;;;;70.00;53.00;;;;;10.41;59.84;102072.38;4990742;28;45454;-81
2022/03/21 05:38:58;;;;;;;;;63.50;48.75;;;;;10.50;60.30;102097.22;4994177;28;45454;-78
2022/03/21 05:41:24;;;;;;;;;57.00;48.00;;;;;10.52;60.09;102099.94;5002800;28;45301;-80
2022/03/21 05:43:50;;;;;;;;;56.00;47.75;;;;;10.49;59.75;102092.81;4994279;28;45523;-83
2022/03/21 05:46:15;;;;;;;;;57.25;47.25;;;;;10.26;60.47;102067.56;4993350;28;45491;-83
2022/03/21 05:51:30;;;;;;;;;65.75;52.50;;;;;10.33;60.70;102100.22;4993685;28;45335;-82
2022/03/21 05:54:02;;;;;;;;;61.33;48.33;;;;;10.23;60.46;102099.94;4994220;28;45477;-82
2022/03/21 05:56:28;;;;;;;;;53.25;43.25;;;;;10.24;61.23;102101.75;4992709;28;46846;-80
2022/03/21 05:58:55;;;;;;;;;58.75;47.25;;;;;10.25;61.24;102105.28;4993858;28;45585;-81
2022/03/21 06:01:22;;;;;;;;;64.00;49.75;;;;;10.24;60.89;102112.28;4994345;28;45432;-80
2022/03/21 06:03:50;;;;;;;;;59.75;50.00;;;;;9.99;61.48;102068.47;4993647;28;45445;-82
2022/03/21 06:06:15;;;;;;;;;57.25;45.25;;;;;10.23;61.11;102106.94;4992271;28;45551;-83
2022/03/21 06:08:43;;;;;;;;;60.00;49.00;;;;;10.30;61.57;102119.47;4993616;28;45505;-83
2022/03/21 06:11:08;;;;;;;;;59.50;48.00;;;;;10.32;61.18;102117.75;5001953;28;45405;-82
2022/03/21 06:13:37;;;;;;;;;61.67;48.67;;;;;10.27;61.45;102107.09;5076238;27;47367;-83
2022/03/21 06:16:06;;;;;;;;;55.50;44.75;;;;;10.39;60.93;102129.38;5085044;27;45380;-81
2022/03/21 06:18:33;;;;;;;;;59.25;48.50;;;;;10.36;60.59;102124.03;5083982;27;45433;-82
2022/03/21 06:21:00;;;;;;;;;57.25;46.00;;;;;10.42;61.08;102133.03;5077698;27;45244;-82
2022/03/21 06:23:26;;;;;;;;;59.75;49.75;;;;;10.31;60.42;102113.34;5079215;27;45420;-82
2022/03/21 06:25:53;;;;;;;;;57.50;48.50;;;;;10.43;61.03;102140.06;5078416;28;45443;-81
2022/03/21 06:28:21;;;;;;;;;69.00;50.00;;;;;10.44;61.06;102146.25;5079020;27;45958;-79
2022/03/21 06:30:47;;;;;;;;;62.75;48.75;;;;;10.46;60.72;102142.78;5075061;27;45685;-79
2022/03/21 06:33:13;;;;;;;;;56.00;44.50;;;;;10.36;60.66;102129.31;5079087;27;45597;-79
2022/03/21 06:35:39;;;;;;;;;56.50;46.25;;;;;10.48;60.28;102143.72;5078914;27;45464;-81
2022/03/21 06:38:04;;;;;;;;;56.25;46.25;;;;;10.38;60.14;102123.22;5075877;27;45555;-86
2022/03/21 06:40:30;;;;;;;;;57.75;46.25;;;;;10.69;60.00;102161.91;5080201;27;46325;-83
2022/03/21 06:42:57;;;;;;;;;57.25;45.00;;;;;10.60;60.36;102124.75;5079349;27;46008;-86
2022/03/21 06:45:26;;;;;;;;;61.00;49.25;;;;;10.84;59.40;102157.09;5078874;27;45539;-86
2022/03/21 06:47:54;;;;;;;;;55.75;45.75;;;;;10.52;59.30;102098.19;5077557;27;45575;-84
2022/03/21 06:50:19;;;;;;;;;53.25;45.00;;;;;11.02;59.47;102179.56;5081853;27;45769;-87
2022/03/21 06:52:45;;;;;;;;;49.75;39.00;;;;;10.23;59.09;102030.56;5097446;28;47344;-87
2022/03/21 06:55:12;;;;;;;;;52.25;43.00;;;;;10.99;58.63;102167.22;5085297;27;45396;-89
2022/03/21 06:57:39;;;;;;;;;58.50;46.00;;;;;11.21;58.88;102188.91;5079200;27;45484;-87
2022/03/21 07:00:06;;;;;;;;;56.00;45.75;;;;;10.51;58.86;102059.50;5080734;27;45488;-88
2022/03/21 07:02:33;;;;;;;;;56.50;45.50;;;;;11.17;58.63;102171.19;5081888;27;46364;-89
2022/03/21 07:04:59;;;;;;;;;54.00;44.00;;;;;10.76;58.23;102090.09;5079352;27;45497;-86
2022/03/21 07:07:26;;;;;;;;;45.75;38.25;;;;;11.38;58.29;102185.00;5081393;27;45428;-89
2022/03/21 07:09:54;;;;;;;;;54.50;42.50;;;;;11.45;57.29;102186.94;5080755;27;45383;-89
2022/03/21 07:12:19;;;;;;;;;51.00;40.25;;;;;10.67;57.90;102054.69;5081128;27;46520;-85
2022/03/21 07:14:46;;;;;;;;;53.50;40.25;;;;;11.41;57.95;102204.44;5081180;28;45271;-85
2022/03/21 07:17:12;;;;;;;;;54.00;42.25;;;;;11.22;58.20;102154.66;5081022;27;45334;-88
2022/03/21 07:19:37;;;;;;;;;53.00;41.25;;;;;11.28;57.93;102148.66;5079604;27;45441;-86
2022/03/21 07:22:03;;;;;;;;;53.25;44.25;;;;;11.74;56.98;102197.38;5079701;27;46202;-86
2022/03/21 07:24:29;;;;;;;;;56.25;42.50;;;;;11.80;56.79;102209.00;5079936;27;45287;-86
2022/03/21 07:26:54;;;;;;;;;43.25;38.75;;;;;11.85;56.36;102186.28;5087888;27;45395;-83
2022/03/21 07:29:20;;;;;;;;;52.25;42.25;;;;;12.22;56.25;102197.75;5090897;27;45479;-86
2022/03/21 07:31:45;;;;;;;;;50.75;39.25;;;;;12.17;55.08;102147.44;5078569;28;47106;-85
2022/03/21 07:34:12;;;;;;;;;53.75;42.00;;;;;12.62;54.49;102194.25;5078123;28;45755;-86
2022/03/21 07:36:38;;;;;;;;;46.75;38.25;;;;;12.39;54.14;102142.66;5079590;27;45460;-85
2022/03/21 07:39:04;;;;;;;;;16.25;7.00;;;;;12.66;53.79;102134.44;5077137;28;45418;-85
2022/03/21 07:41:30;;;;;;;;;46.75;40.25;;;;;12.71;53.43;102138.94;5080417;27;45360;-87
2022/03/21 07:43:57;;;;;;;;;56.50;44.00;;;;;12.43;52.83;102081.94;5081041;27;45537;-86
2022/03/21 07:49:09;;;;;;;;;47.25;38.25;;;;;12.59;52.97;102111.38;5079792;28;45362;-84
2022/03/21 07:51:34;;;;;;;;;51.00;40.25;;;;;13.09;52.88;102197.91;5067745;27;46382;-85
2022/03/21 07:54:00;;;;;;;;;39.25;35.25;;;;;12.95;52.53;102164.13;5073604;27;45586;-81
2022/03/21 07:56:25;;;;;;;;;51.00;39.50;;;;;13.12;52.44;102195.34;5073821;28;45514;-84
2022/03/21 07:58:51;;;;;;;;;49.75;38.75;;;;;12.91;51.99;102181.66;5075054;28;45486;-84
2022/03/21 08:01:18;;;;;;;;;45.50;39.75;;;;;13.03;52.30;102204.84;5076755;28;47695;-84
2022/03/21 08:03:46;;;;;;;;;48.50;37.75;;;;;12.73;52.24;102120.47;5086098;27;45643;-80
2022/03/21 08:06:11;;;;;;;;;44.00;39.00;;;;;13.54;51.14;102205.00;5079508;27;45283;-85
2022/03/21 08:08:37;;;;;;;;;46.75;40.25;;;;;13.35;50.14;102115.53;5073923;28;45239;-84
2022/03/21 08:11:04;;;;;;;;;42.25;37.75;;;;;14.25;49.64;102210.66;5073820;27;46150;-83
2022/03/21 08:13:30;;;;;;;;;43.00;37.50;;;;;14.32;49.05;102211.63;5077713;27;45537;-83
2022/03/21 08:15:55;;;;;;;;;46.75;39.25;;;;;14.03;48.64;102159.94;5076707;27;46256;-84
2022/03/21 08:18:21;;;;;;;;;45.00;36.00;;;;;14.32;48.64;102208.97;5079369;27;45407;-84
2022/03/21 08:20:46;;;;;;;;;49.50;39.00;;;;;14.24;48.84;102203.59;5077231;27;45512;-85
2022/03/21 08:23:14;;;;;;;;;51.00;39.75;;;;;14.49;48.23;102212.81;5078024;27;45417;-83
2022/03/21 08:25:48;;;;;;;;;43.75;38.00;;;;;14.75;47.36;102212.31;5077731;27;45315;-84
2022/03/21 08:28:14;;;;;;;;;42.00;36.00;;;;;14.77;47.11;102199.94;5078881;27;45361;-87
2022/03/21 08:30:40;;;;;;;;;34.25;32.00;;;;;14.90;46.39;102178.03;5077454;27;46310;-81
2022/03/21 08:33:10;;;;;;;;;47.00;38.00;;;;;15.14;46.48;102219.00;5078075;27;45457;-88
2022/03/21 08:35:38;;;;;;;;;49.25;40.75;;;;;14.89;46.94;102197.50;5073692;27;45423;-87
2022/03/21 08:38:05;;;;;;;;;37.25;35.50;;;;;14.72;46.86;102177.78;5070407;28;45635;-77
2022/03/21 08:40:30;;;;;;;;;36.00;34.00;;;;;14.99;46.77;102214.41;5076970;28;45512;-80
2022/03/21 08:42:57;;;;;;;;;40.75;36.00;;;;;15.07;46.93;102210.06;5078034;27;45353;-80
2022/03/21 08:45:23;;;;;;;;;39.50;35.00;;;;;15.10;46.55;102204.81;5080019;27;45499;-82
2022/03/21 08:47:52;;;;;;;;;38.75;33.75;;;;;15.13;46.35;102217.22;5077304;27;45310;-82
2022/03/21 08:50:18;;;;;;;;;45.00;36.75;;;;;15.26;46.41;102211.19;5077428;27;45990;-80
2022/03/21 08:52:44;;;;;;;;;45.75;36.75;;;;;15.29;45.90;102185.56;5076685;27;45526;-81
2022/03/21 08:55:10;;;;;;;;;31.00;29.25;;;;;15.37;45.20;102209.56;5075597;27;45484;-80
2022/03/21 08:57:35;;;;;;;;;37.75;35.75;;;;;15.59;45.22;102190.31;5075410;27;45870;-78
2022/03/21 09:00:04;;;;;;;;;43.25;37.25;;;;;16.33;43.86;102213.13;5077078;27;45960;-81
2022/03/21 09:02:30;;;;;;;;;39.25;35.00;;;;;16.58;42.69;102211.53;5077193;27;45439;-78
2022/03/21 09:04:58;;;;;;;;;32.50;29.50;;;;;17.27;41.07;102193.25;5077039;27;45396;-78
2022/03/21 09:07:24;;;;;;;;;50.25;38.75;;;;;19.81;36.55;102215.03;5074571;28;45410;-78
2022/03/21 09:09:49;;;;;;;;;43.25;33.50;;;;;21.90;32.89;102191.22;5076569;28;46934;-80
2022/03/21 09:12:15;;;;;;;;;44.25;33.75;;;;;24.17;29.45;102204.41;5076794;27;45293;-76
2022/03/21 09:14:40;;;;;;;;;36.50;32.75;;;;;26.25;27.07;102201.78;5076914;27;45456;-75
2022/03/21 09:17:06;;;;;;;;;33.00;30.00;;;;;28.37;24.20;102198.94;5076619;27;45405;-77
2022/03/21 09:19:32;;;;;;;;;37.67;31.33;;;;;29.41;21.60;102187.81;5074602;27;45241;-76
2022/03/21 09:21:58;;;;;;;;;33.67;32.67;;;;;28.31;23.43;102192.91;5076416;28;45301;-77
2022/03/21 09:24:24;;;;;;;;;31.67;28.00;;;;;28.95;22.85;102185.50;5076660;27;45457;-76
2022/03/21 09:26:50;;;;;;;;;27.67;26.67;;;;;30.27;20.52;102187.19;5073144;27;45566;-76
2022/03/21 09:29:16;;;;;;;;;34.00;28.67;;;;;31.11;21.16;102183.53;5075054;28;46804;-77
2022/03/21 09:31:42;;;;;;;;;27.67;27.67;;;;;32.02;19.44;102182.84;5074985;27;45418;-76
2022/03/21 09:34:08;;;;;;;;;31.00;29.00;;;;;33.43;18.55;102183.09;5076283;27;45427;-76
2022/03/21 09:36:33;;;;;;;;;30.33;27.00;;;;;34.62;17.83;102184.97;5075336;27;45382;-76
2022/03/21 09:38:59;;;;;;;;;30.00;26.75;;;;;35.23;16.89;102180.56;5073576;28;45917;-76
2022/03/21 09:41:29;;;;;;;;;27.25;27.25;;;;;36.06;15.48;102190.81;5073904;27;45555;-76
2022/03/21 09:44:09;;;;;;;;;28.75;27.00;;;;;36.21;15.76;102173.16;5072530;28;45528;-79
2022/03/21 09:46:35;;;;;;;;;33.25;29.50;;;;;36.86;14.75;102179.91;5074768;28;45487;-75
2022/03/21 09:49:03;;;;;;;;;25.50;25.50;;;;;37.69;16.00;102180.28;5079176;27;46102;-78
2022/03/21 09:51:30;;;;;;;;;24.00;23.20;;;;;36.25;15.57;102178.25;5104697;27;45698;-80
2022/03/21 09:53:57;;;;;;;;;23.80;21.60;;;;;35.45;16.38;102166.16;5079714;28;45845;-80
2022/03/21 09:56:24;;;;;;;;;24.00;21.40;;;;;36.21;16.31;102174.03;5078845;27;45518;-76
2022/03/21 09:58:59;;;;;;;;;26.00;26.00;;;;;34.74;16.86;102172.28;5078311;28;46327;-75
2022/03/21 10:01:29;;;;;;;;;23.20;23.20;;;;;34.39;16.82;102174.78;5078139;27;45242;-82
2022/03/21 10:03:55;;;;;;;;;20.00;17.40;;;;;35.34;15.96;102155.09;5079346;27;45421;-79
2022/03/21 10:06:40;;;;;;;;;20.75;18.75;;;;;36.12;15.55;102172.00;5079224;27;45554;-84
2022/03/21 10:09:08;;;;;;;;;16.20;16.00;;;;;37.17;14.51;102157.16;5080333;27;46093;-79
2022/03/21 10:11:34;;;;;;;;;24.60;22.80;;;;;37.47;14.47;102142.75;5079025;27;45560;-77
2022/03/21 10:14:19;;;;;;;;;22.60;21.40;;;;;38.33;13.45;102162.91;5079123;27;45408;-77
2022/03/21 10:16:52;;;;;;;;;21.80;17.40;;;;;39.12;14.00;102164.09;5077625;27;45478;-80
2022/03/21 10:19:18;;;;;;;;;18.80;18.60;;;;;39.44;13.39;102147.31;5075569;27;46056;-77
2022/03/21 10:22:02;;;;;;;;;21.50;19.75;;;;;40.29;12.58;102162.31;5077334;27;45409;-80
2022/03/21 10:24:33;;;;;;;;;21.20;21.00;;;;;41.10;13.04;102155.25;5071154;27;45412;-78
2022/03/21 10:26:58;;;;;;;;;23.60;22.20;;;;;41.29;12.19;102154.28;5082406;27;45296;-85
2022/03/21 10:29:24;;;;;;;;;22.75;21.25;;;;;41.83;12.13;102147.78;5077336;28;46291;-78
2022/03/21 10:31:52;;;;;;;;;19.75;19.75;;;;;42.18;11.58;102154.34;5079967;27;45444;-82
2022/03/21 10:34:20;;;;;;;;;20.00;18.60;;;;;42.33;11.48;102140.75;5081373;27;45326;-85
2022/03/21 10:37:04;;;;;;;;;16.00;15.40;;;;;42.54;11.24;102148.72;5080171;27;45465;-85
2022/03/21 10:39:35;;;;;;;;;19.80;19.20;;;;;41.72;11.90;102122.25;5075969;28;48610;-85
2022/03/21 10:42:04;;;;;;;;;16.60;16.60;;;;;42.00;11.24;102140.50;5097765;27;45544;-84
2022/03/21 10:44:32;;;;;;;;;15.20;15.20;;;;;42.64;11.50;102130.94;5083828;27;45550;-83
2022/03/21 10:47:03;;;;;;;;;15.00;15.00;;;;;42.70;10.91;102126.63;5088102;27;45489;-87
2022/03/21 10:49:55;;;;;;;;;13.60;13.60;;;;;42.81;11.61;102134.63;5097340;27;47866;-83
2022/03/21 10:52:22;;;;;;;;;9.60;9.60;;;;;42.64;10.97;102144.81;5079599;28;45449;-80
2022/03/21 10:54:48;;;;;;;;;15.20;12.00;;;;;41.77;11.39;102137.34;5085665;27;45451;-81
2022/03/21 10:57:31;;;;;;;;;10.80;10.00;;;;;40.22;12.39;102147.38;5080244;27;45728;-82
2022/03/21 11:00:26;;;;;;;;;14.40;12.60;;;;;36.96;14.17;102102.13;5084421;27;46017;-86
2022/03/21 11:02:56;;;;;;;;;15.00;14.00;;;;;35.21;15.29;102132.34;5069782;28;45455;-81
2022/03/21 11:05:25;;;;;;;;;11.80;10.40;;;;;32.38;17.63;102101.59;5071623;28;45313;-85
2022/03/21 11:07:50;;;;;;;;;9.60;9.60;;;;;30.45;18.97;102098.31;5073018;27;45670;-79
2022/03/21 11:10:16;;;;;;;;;11.75;11.75;;;;;28.94;20.95;102080.66;5076936;28;45429;-81
2022/03/21 11:12:43;;;;;;;;;15.80;14.80;;;;;27.74;21.64;102050.91;5078225;27;45420;-82
2022/03/21 11:15:10;;;;;;;;;10.40;10.40;;;;;27.19;23.16;102091.97;5078107;27;45424;-81
2022/03/21 11:17:36;;;;;;;;;10.00;9.80;;;;;26.34;23.51;102060.09;5078241;27;45515;-80
2022/03/21 11:20:04;;;;;;;;;12.40;12.40;;;;;25.90;24.65;102086.88;5077180;27;45623;-80
2022/03/21 11:22:29;;;;;;;;;15.80;14.60;;;;;25.34;25.13;102054.59;5078409;27;45427;-80
2022/03/21 11:25:04;;;;;;;;;19.00;17.75;;;;;25.01;26.04;102097.84;5076092;27;45399;-80
2022/03/21 11:28:03;;;;;;;;;20.50;14.25;;;;;24.62;26.41;102094.53;5081894;27;45416;-80